sensor_id;sensor_type;location;lat;lon;timestamp;pressure;altitude;pressure_sealevel;temperature;humidity
69784;BME280;57054;51.978;4.498;2023-04-08T00:00:18;102320.06;;;8.15;100.00
69784;BME280;57054;51.978;4.498;2023-04-08T00:02:43;102326.13;;;8.14;100.00
69784;BME280;57054;51.978;4.498;2023-04-08T00:05:08;102314.84;;;8.14;100.00
69784;BME280;57054;51.978;4.498;2023-04-08T00:07:34;102317.47;;;8.12;100.00
69784;BME280;57054;51.978;4.498;2023-04-08T00:10:00;102315.69;;;8.13;100.00
69784;BME280;57054;51.978;4.498;2023-04-08T00:12:25;102314.84;;;8.11;100.00
69784;BME280;57054;51.978;4.498;2023-04-08T00:14:51;102319.22;;;8.12;100.00
69784;BME280;57054;51.978;4.498;2023-04-08T00:17:16;102316.59;;;8.10;100.00
69784;BME280;57054;51.978;4.498;2023-04-08T00:19:42;102321.81;;;8.12;100.00
69784;BME280;57054;51.978;4.498;2023-04-08T00:22:07;102321.81;;;8.13;100.00
69784;BME280;57054;51.978;4.498;2023-04-08T00:24:33;102320.91;;;8.14;100.00
69784;BME280;57054;51.978;4.498;2023-04-08T00:26:58;102317.44;;;8.15;100.00
69784;BME280;57054;51.978;4.498;2023-04-08T00:29:24;102323.53;;;8.16;100.00
69784;BME280;57054;51.978;4.498;2023-04-08T00:31:49;102313.94;;;8.16;100.00
69784;BME280;57054;51.978;4.498;2023-04-08T00:34:15;102317.44;;;8.17;100.00
69784;BME280;57054;51.978;4.498;2023-04-08T00:36:41;102319.16;;;8.16;100.00
69784;BME280;57054;51.978;4.498;2023-04-08T00:39:06;102320.00;;;8.18;100.00
69784;BME280;57054;51.978;4.498;2023-04-08T00:41:35;102320.03;;;8.17;100.00
69784;BME280;57054;51.978;4.498;2023-04-08T00:44:00;102320.03;;;8.17;100.00
69784;BME280;57054;51.978;4.498;2023-04-08T00:46:26;102315.69;;;8.16;100.00
69784;BME280;57054;51.978;4.498;2023-04-08T00:48:51;102320.91;;;8.16;100.00
69784;BME280;57054;51.978;4.498;2023-04-08T00:51:18;102325.28;;;8.17;100.00
69784;BME280;57054;51.978;4.498;2023-04-08T00:53:43;102320.06;;;8.15;100.00
69784;BME280;57054;51.978;4.498;2023-04-08T00:56:09;102320.03;;;8.17;100.00
69784;BME280;57054;51.978;4.498;2023-04-08T00:58:35;102320.03;;;8.17;100.00
69784;BME280;57054;51.978;4.498;2023-04-08T01:01:26;102322.63;;;8.18;100.00
69784;BME280;57054;51.978;4.498;2023-04-08T01:04:03;102332.19;;;8.19;100.00
69784;BME280;57054;51.978;4.498;2023-04-08T01:06:40;102340.88;;;8.21;100.00
69784;BME280;57054;51.978;4.498;2023-04-08T01:09:12;102337.41;;;8.21;100.00
69784;BME280;57054;51.978;4.498;2023-04-08T01:11:42;102332.19;;;8.21;100.00
69784;BME280;57054;51.978;4.498;2023-04-08T01:14:08;102330.44;;;8.21;100.00
69784;BME280;57054;51.978;4.498;2023-04-08T01:16:37;102338.25;;;8.21;100.00
69784;BME280;57054;51.978;4.498;2023-04-08T01:19:07;102331.31;;;8.20;100.00
69784;BME280;57054;51.978;4.498;2023-04-08T01:21:35;102334.81;;;8.19;100.00
69784;BME280;57054;51.978;4.498;2023-04-08T01:24:19;102335.66;;;8.18;100.00
69784;BME280;57054;51.978;4.498;2023-04-08T01:26:48;102324.38;;;8.19;100.00
69784;BME280;57054;51.978;4.498;2023-04-08T01:29:15;102330.44;;;8.18;100.00
69784;BME280;57054;51.978;4.498;2023-04-08T01:31:41;102331.34;;;8.19;100.00
69784;BME280;57054;51.978;4.498;2023-04-08T01:34:08;102332.22;;;8.16;100.00
69784;BME280;57054;51.978;4.498;2023-04-08T01:36:36;102334.81;;;8.19;100.00
69784;BME280;57054;51.978;4.498;2023-04-08T01:39:03;102338.28;;;8.18;100.00
69784;BME280;57054;51.978;4.498;2023-04-08T01:41:30;102339.16;;;8.19;100.00
69784;BME280;57054;51.978;4.498;2023-04-08T01:43:57;102337.41;;;8.19;100.00
69784;BME280;57054;51.978;4.498;2023-04-08T01:46:23;102335.66;;;8.21;100.00
69784;BME280;57054;51.978;4.498;2023-04-08T01:48:49;102334.81;;;8.21;100.00
69784;BME280;57054;51.978;4.498;2023-04-08T01:51:15;102335.66;;;8.23;100.00
69784;BME280;57054;51.978;4.498;2023-04-08T01:53:41;102337.41;;;8.22;100.00
69784;BME280;57054;51.978;4.498;2023-04-08T01:56:11;102332.19;;;8.22;100.00
69784;BME280;57054;51.978;4.498;2023-04-08T01:58:45;102333.91;;;8.22;100.00
69784;BME280;57054;51.978;4.498;2023-04-08T02:01:16;102339.13;;;8.22;100.00
69784;BME280;57054;51.978;4.498;2023-04-08T02:03:43;102331.31;;;8.20;100.00
69784;BME280;57054;51.978;4.498;2023-04-08T02:06:09;102334.81;;;8.21;100.00
69784;BME280;57054;51.978;4.498;2023-04-08T02:08:35;102326.97;;;8.19;100.00
69784;BME280;57054;51.978;4.498;2023-04-08T02:11:01;102332.19;;;8.19;100.00
69784;BME280;57054;51.978;4.498;2023-04-08T02:13:28;102339.13;;;8.20;100.00
69784;BME280;57054;51.978;4.498;2023-04-08T02:16:02;102333.06;;;8.20;100.00
69784;BME280;57054;51.978;4.498;2023-04-08T02:18:30;102343.50;;;8.20;100.00
69784;BME280;57054;51.978;4.498;2023-04-08T02:21:18;102332.19;;;8.19;100.00
69784;BME280;57054;51.978;4.498;2023-04-08T02:23:48;102335.66;;;8.18;100.00
69784;BME280;57054;51.978;4.498;2023-04-08T02:26:15;102334.81;;;8.16;100.00
69784;BME280;57054;51.978;4.498;2023-04-08T02:28:42;102339.19;;;8.16;100.00
69784;BME280;57054;51.978;4.498;2023-04-08T02:31:09;102338.31;;;8.15;100.00
69784;BME280;57054;51.978;4.498;2023-04-08T02:33:38;102342.66;;;8.16;100.00
69784;BME280;57054;51.978;4.498;2023-04-08T02:36:04;102342.66;;;8.15;100.00
69784;BME280;57054;51.978;4.498;2023-04-08T02:38:30;102333.97;;;8.14;100.00
69784;BME280;57054;51.978;4.498;2023-04-08T02:40:56;102346.16;;;8.14;100.00
69784;BME280;57054;51.978;4.498;2023-04-08T02:43:22;102339.19;;;8.14;100.00
69784;BME280;57054;51.978;4.498;2023-04-08T02:45:56;102345.25;;;8.15;100.00
69784;BME280;57054;51.978;4.498;2023-04-08T02:48:21;102347.00;;;8.14;100.00
69784;BME280;57054;51.978;4.498;2023-04-08T02:50:46;102346.16;;;8.14;100.00
69784;BME280;57054;51.978;4.498;2023-04-08T02:53:12;102351.38;;;8.14;100.00
69784;BME280;57054;51.978;4.498;2023-04-08T02:55:37;102353.97;;;8.14;100.00
69784;BME280;57054;51.978;4.498;2023-04-08T02:58:03;102347.03;;;8.13;100.00
69784;BME280;57054;51.978;4.498;2023-04-08T03:00:29;102353.13;;;8.13;100.00
69784;BME280;57054;51.978;4.498;2023-04-08T03:02:54;102351.38;;;8.12;100.00
69784;BME280;57054;51.978;4.498;2023-04-08T03:05:20;102353.13;;;8.13;100.00
69784;BME280;57054;51.978;4.498;2023-04-08T03:07:46;102353.13;;;8.13;100.00
69784;BME280;57054;51.978;4.498;2023-04-08T03:10:11;102352.22;;;8.13;100.00
69784;BME280;57054;51.978;4.498;2023-04-08T03:12:36;102356.59;;;8.12;100.00
69784;BME280;57054;51.978;4.498;2023-04-08T03:15:02;102361.81;;;8.12;100.00
69784;BME280;57054;51.978;4.498;2023-04-08T03:17:28;102363.56;;;8.12;100.00
69784;BME280;57054;51.978;4.498;2023-04-08T03:19:53;102360.06;;;8.11;100.00
69784;BME280;57054;51.978;4.498;2023-04-08T03:22:19;102367.91;;;8.11;100.00
69784;BME280;57054;51.978;4.498;2023-04-08T03:24:44;102367.91;;;8.11;100.00
69784;BME280;57054;51.978;4.498;2023-04-08T03:27:10;102367.03;;;8.12;100.00
69784;BME280;57054;51.978;4.498;2023-04-08T03:29:37;102365.28;;;8.11;100.00
69784;BME280;57054;51.978;4.498;2023-04-08T03:32:02;102371.41;;;8.12;100.00
69784;BME280;57054;51.978;4.498;2023-04-08T03:34:27;102370.50;;;8.11;100.00
69784;BME280;57054;51.978;4.498;2023-04-08T03:36:53;102371.41;;;8.10;100.00
69784;BME280;57054;51.978;4.498;2023-04-08T03:39:18;102377.47;;;8.11;100.00
69784;BME280;57054;51.978;4.498;2023-04-08T03:41:44;102379.22;;;8.10;100.00
69784;BME280;57054;51.978;4.498;2023-04-08T03:44:09;102378.34;;;8.11;100.00
69784;BME280;57054;51.978;4.498;2023-04-08T03:46:35;102374.88;;;8.09;100.00
69784;BME280;57054;51.978;4.498;2023-04-08T03:49:00;102382.69;;;8.09;100.00
69784;BME280;57054;51.978;4.498;2023-04-08T03:51:25;102385.31;;;8.09;100.00
69784;BME280;57054;51.978;4.498;2023-04-08T03:53:52;102382.69;;;8.09;100.00
69784;BME280;57054;51.978;4.498;2023-04-08T03:56:18;102387.06;;;8.10;100.00
69784;BME280;57054;51.978;4.498;2023-04-08T03:58:43;102384.44;;;8.10;100.00
69784;BME280;57054;51.978;4.498;2023-04-08T04:01:08;102389.66;;;8.08;100.00
69784;BME280;57054;51.978;4.498;2023-04-08T04:03:34;102387.06;;;8.08;100.00
69784;BME280;57054;51.978;4.498;2023-04-08T04:05:59;102385.31;;;8.07;100.00
69784;BME280;57054;51.978;4.498;2023-04-08T04:08:24;102391.44;;;8.08;100.00
69784;BME280;57054;51.978;4.498;2023-04-08T04:10:50;102391.44;;;8.06;100.00
69784;BME280;57054;51.978;4.498;2023-04-08T04:13:16;102397.50;;;8.08;100.00
69784;BME280;57054;51.978;4.498;2023-04-08T04:15:41;102388.81;;;8.06;100.00
69784;BME280;57054;51.978;4.498;2023-04-08T04:18:06;102394.88;;;8.08;100.00
69784;BME280;57054;51.978;4.498;2023-04-08T04:20:32;102402.72;;;8.08;100.00
69784;BME280;57054;51.978;4.498;2023-04-08T04:22:58;102399.25;;;8.08;100.00
69784;BME280;57054;51.978;4.498;2023-04-08T04:25:23;102405.34;;;8.07;100.00
69784;BME280;57054;51.978;4.498;2023-04-08T04:27:49;102407.09;;;8.06;100.00
69784;BME280;57054;51.978;4.498;2023-04-08T04:30:14;102410.56;;;8.07;100.00
69784;BME280;57054;51.978;4.498;2023-04-08T04:32:42;102412.31;;;8.05;100.00
69784;BME280;57054;51.978;4.498;2023-04-08T04:35:11;102418.38;;;8.07;100.00
69784;BME280;57054;51.978;4.498;2023-04-08T04:37:37;102407.09;;;8.06;100.00
69784;BME280;57054;51.978;4.498;2023-04-08T04:40:03;102414.91;;;8.05;100.00
69784;BME280;57054;51.978;4.498;2023-04-08T04:42:29;102409.69;;;8.03;100.00
69784;BME280;57054;51.978;4.498;2023-04-08T04:44:54;102414.91;;;8.02;100.00
69784;BME280;57054;51.978;4.498;2023-04-08T04:47:20;102427.09;;;8.01;100.00
69784;BME280;57054;51.978;4.498;2023-04-08T04:49:45;102430.56;;;8.00;100.00
69784;BME280;57054;51.978;4.498;2023-04-08T04:52:11;102431.47;;;7.99;100.00
69784;BME280;57054;51.978;4.498;2023-04-08T04:54:36;102431.47;;;7.98;100.00
69784;BME280;57054;51.978;4.498;2023-04-08T04:57:01;102432.38;;;7.95;100.00
69784;BME280;57054;51.978;4.498;2023-04-08T04:59:27;102432.38;;;7.94;100.00
69784;BME280;57054;51.978;4.498;2023-04-08T05:01:52;102428.00;;;7.93;100.00
69784;BME280;57054;51.978;4.498;2023-04-08T05:04:18;102431.50;;;7.92;100.00
69784;BME280;57054;51.978;4.498;2023-04-08T05:06:43;102428.91;;;7.92;100.00
69784;BME280;57054;51.978;4.498;2023-04-08T05:09:08;102430.63;;;7.91;100.00
69784;BME280;57054;51.978;4.498;2023-04-08T05:11:34;102433.22;;;7.91;100.00
69784;BME280;57054;51.978;4.498;2023-04-08T05:13:59;102442.81;;;7.91;100.00
69784;BME280;57054;51.978;4.498;2023-04-08T05:16:24;102441.06;;;7.91;100.00
69784;BME280;57054;51.978;4.498;2023-04-08T05:18:50;102439.34;;;7.92;100.00
69784;BME280;57054;51.978;4.498;2023-04-08T05:21:15;102437.59;;;7.91;100.00
69784;BME280;57054;51.978;4.498;2023-04-08T05:23:40;102447.16;;;7.90;100.00
69784;BME280;57054;51.978;4.498;2023-04-08T05:26:06;102452.38;;;7.87;100.00
69784;BME280;57054;51.978;4.498;2023-04-08T05:28:33;102449.78;;;7.85;100.00
69784;BME280;57054;51.978;4.498;2023-04-08T05:30:58;102450.66;;;7.84;100.00
69784;BME280;57054;51.978;4.498;2023-04-08T05:33:24;102455.00;;;7.85;100.00
69784;BME280;57054;51.978;4.498;2023-04-08T05:35:50;102460.22;;;7.84;100.00
69784;BME280;57054;51.978;4.498;2023-04-08T05:38:17;102459.34;;;7.85;100.00
69784;BME280;57054;51.978;4.498;2023-04-08T05:40:42;102459.34;;;7.83;100.00
69784;BME280;57054;51.978;4.498;2023-04-08T05:43:08;102461.97;;;7.82;100.00
69784;BME280;57054;51.978;4.498;2023-04-08T05:45:33;102469.78;;;7.82;100.00
69784;BME280;57054;51.978;4.498;2023-04-08T05:47:59;102472.38;;;7.80;100.00
69784;BME280;57054;51.978;4.498;2023-04-08T05:50:24;102479.34;;;7.81;100.00
69784;BME280;57054;51.978;4.498;2023-04-08T05:52:49;102476.75;;;7.80;100.00
69784;BME280;57054;51.978;4.498;2023-04-08T05:55:15;102481.97;;;7.78;100.00
69784;BME280;57054;51.978;4.498;2023-04-08T05:57:41;102486.31;;;7.78;100.00
69784;BME280;57054;51.978;4.498;2023-04-08T06:00:07;102492.41;;;7.78;100.00
69784;BME280;57054;51.978;4.498;2023-04-08T06:02:34;102495.91;;;7.76;100.00
69784;BME280;57054;51.978;4.498;2023-04-08T06:05:00;102495.03;;;7.75;100.00
69784;BME280;57054;51.978;4.498;2023-04-08T06:07:25;102499.34;;;7.75;100.00
69784;BME280;57054;51.978;4.498;2023-04-08T06:09:51;102496.78;;;7.73;100.00
69784;BME280;57054;51.978;4.498;2023-04-08T06:12:16;102494.16;;;7.72;100.00
69784;BME280;57054;51.978;4.498;2023-04-08T06:14:42;102504.59;;;7.72;100.00
69784;BME280;57054;51.978;4.498;2023-04-08T06:17:07;102509.81;;;7.73;100.00
69784;BME280;57054;51.978;4.498;2023-04-08T06:19:33;102508.06;;;7.72;100.00
69784;BME280;57054;51.978;4.498;2023-04-08T06:21:59;102514.16;;;7.73;100.00
69784;BME280;57054;51.978;4.498;2023-04-08T06:24:25;102508.94;;;7.73;100.00
69784;BME280;57054;51.978;4.498;2023-04-08T06:26:51;102515.91;;;7.72;100.00
69784;BME280;57054;51.978;4.498;2023-04-08T06:29:18;102518.50;;;7.71;100.00
69784;BME280;57054;51.978;4.498;2023-04-08T06:31:43;102522.00;;;7.68;100.00
69784;BME280;57054;51.978;4.498;2023-04-08T06:34:08;102521.13;;;7.66;100.00
69784;BME280;57054;51.978;4.498;2023-04-08T06:36:34;102528.06;;;7.64;100.00
69784;BME280;57054;51.978;4.498;2023-04-08T06:38:59;102531.56;;;7.61;100.00
69784;BME280;57054;51.978;4.498;2023-04-08T06:41:25;102539.38;;;7.61;100.00
69784;BME280;57054;51.978;4.498;2023-04-08T06:43:50;102535.91;;;7.59;100.00
69784;BME280;57054;51.978;4.498;2023-04-08T06:46:15;102536.78;;;7.60;100.00
69784;BME280;57054;51.978;4.498;2023-04-08T06:48:41;102535.91;;;7.59;100.00
69784;BME280;57054;51.978;4.498;2023-04-08T06:51:06;102540.22;;;7.60;100.00
69784;BME280;57054;51.978;4.498;2023-04-08T06:53:32;102544.59;;;7.61;100.00
69784;BME280;57054;51.978;4.498;2023-04-08T06:55:58;102544.59;;;7.63;100.00
69784;BME280;57054;51.978;4.498;2023-04-08T06:58:23;102548.91;;;7.64;100.00
69784;BME280;57054;51.978;4.498;2023-04-08T07:00:48;102558.50;;;7.65;100.00
69784;BME280;57054;51.978;4.498;2023-04-08T07:03:14;102558.50;;;7.63;100.00
69784;BME280;57054;51.978;4.498;2023-04-08T07:05:39;102560.25;;;7.63;100.00
69784;BME280;57054;51.978;4.498;2023-04-08T07:08:06;102566.31;;;7.62;100.00
69784;BME280;57054;51.978;4.498;2023-04-08T07:10:33;102567.22;;;7.62;100.00
69784;BME280;57054;51.978;4.498;2023-04-08T07:12:59;102569.81;;;7.62;100.00
69784;BME280;57054;51.978;4.498;2023-04-08T07:15:24;102571.53;;;7.62;100.00
69784;BME280;57054;51.978;4.498;2023-04-08T07:17:50;102575.03;;;7.61;100.00
69784;BME280;57054;51.978;4.498;2023-04-08T07:20:15;102571.56;;;7.59;100.00
69784;BME280;57054;51.978;4.498;2023-04-08T07:22:41;102572.41;;;7.61;100.00
69784;BME280;57054;51.978;4.498;2023-04-08T07:25:06;102568.91;;;7.60;100.00
69784;BME280;57054;51.978;4.498;2023-04-08T07:27:33;102564.59;;;7.61;100.00
69784;BME280;57054;51.978;4.498;2023-04-08T07:29:58;102575.03;;;7.62;100.00
69784;BME280;57054;51.978;4.498;2023-04-08T07:32:24;102584.56;;;7.63;100.00
69784;BME280;57054;51.978;4.498;2023-04-08T07:34:49;102585.44;;;7.64;100.00
69784;BME280;57054;51.978;4.498;2023-04-08T07:37:15;102581.97;;;7.65;100.00
69784;BME280;57054;51.978;4.498;2023-04-08T07:39:41;102577.63;;;7.67;100.00
69784;BME280;57054;51.978;4.498;2023-04-08T07:42:07;102579.38;;;7.68;100.00
69784;BME280;57054;51.978;4.498;2023-04-08T07:44:32;102581.09;;;7.71;100.00
69784;BME280;57054;51.978;4.498;2023-04-08T07:46:58;102581.94;;;7.73;100.00
69784;BME280;57054;51.978;4.498;2023-04-08T07:49:23;102585.44;;;7.76;100.00
69784;BME280;57054;51.978;4.498;2023-04-08T07:51:48;102586.31;;;7.77;100.00
69784;BME280;57054;51.978;4.498;2023-04-08T07:54:14;102589.78;;;7.79;100.00
69784;BME280;57054;51.978;4.498;2023-04-08T07:56:42;102583.69;;;7.81;100.00
69784;BME280;57054;51.978;4.498;2023-04-08T07:59:09;102589.78;;;7.83;100.00
69784;BME280;57054;51.978;4.498;2023-04-08T08:01:34;102587.16;;;7.85;100.00
69784;BME280;57054;51.978;4.498;2023-04-08T08:04:00;102588.03;;;7.85;100.00
69784;BME280;57054;51.978;4.498;2023-04-08T08:06:26;102590.63;;;7.87;100.00
69784;BME280;57054;51.978;4.498;2023-04-08T08:08:52;102596.72;;;7.87;100.00
69784;BME280;57054;51.978;4.498;2023-04-08T08:11:18;102595.00;;;7.90;100.00
69784;BME280;57054;51.978;4.498;2023-04-08T08:13:43;102597.59;;;7.90;100.00
69784;BME280;57054;51.978;4.498;2023-04-08T08:16:09;102602.78;;;7.93;100.00
69784;BME280;57054;51.978;4.498;2023-04-08T08:18:36;102601.94;;;7.95;100.00
69784;BME280;57054;51.978;4.498;2023-04-08T08:21:02;102604.56;;;7.97;100.00
69784;BME280;57054;51.978;4.498;2023-04-08T08:23:27;102608.88;;;7.99;100.00
69784;BME280;57054;51.978;4.498;2023-04-08T08:26:04;102611.50;;;8.01;100.00
69784;BME280;57054;51.978;4.498;2023-04-08T08:28:30;102610.59;;;8.03;100.00
69784;BME280;57054;51.978;4.498;2023-04-08T08:30:56;102609.75;;;8.06;100.00
69784;BME280;57054;51.978;4.498;2023-04-08T08:33:21;102616.69;;;8.08;100.00
69784;BME280;57054;51.978;4.498;2023-04-08T08:35:47;102612.34;;;8.12;100.00
69784;BME280;57054;51.978;4.498;2023-04-08T08:38:12;102616.66;;;8.15;100.00
69784;BME280;57054;51.978;4.498;2023-04-08T08:40:38;102619.28;;;8.16;100.00
69784;BME280;57054;51.978;4.498;2023-04-08T08:43:04;102618.41;;;8.16;100.00
69784;BME280;57054;51.978;4.498;2023-04-08T08:45:29;102627.13;;;8.16;100.00
69784;BME280;57054;51.978;4.498;2023-04-08T08:47:55;102622.78;;;8.15;100.00
69784;BME280;57054;51.978;4.498;2023-04-08T08:50:24;102627.13;;;8.16;100.00
69784;BME280;57054;51.978;4.498;2023-04-08T08:52:51;102621.91;;;8.16;100.00
69784;BME280;57054;51.978;4.498;2023-04-08T08:55:20;102621.91;;;8.16;100.00
69784;BME280;57054;51.978;4.498;2023-04-08T08:57:45;102626.25;;;8.16;100.00
69784;BME280;57054;51.978;4.498;2023-04-08T09:00:13;102617.56;;;8.15;100.00
69784;BME280;57054;51.978;4.498;2023-04-08T09:02:40;102623.63;;;8.16;100.00
69784;BME280;57054;51.978;4.498;2023-04-08T09:05:06;102619.28;;;8.15;100.00
69784;BME280;57054;51.978;4.498;2023-04-08T09:07:35;102621.03;;;8.14;100.00
69784;BME280;57054;51.978;4.498;2023-04-08T09:10:01;102623.63;;;8.14;100.00
69784;BME280;57054;51.978;4.498;2023-04-08T09:12:27;102632.34;;;8.13;100.00
69784;BME280;57054;51.978;4.498;2023-04-08T09:15:06;102629.75;;;8.13;100.00
69784;BME280;57054;51.978;4.498;2023-04-08T09:17:33;102626.25;;;8.13;100.00
69784;BME280;57054;51.978;4.498;2023-04-08T09:20:12;102629.75;;;8.13;100.00
69784;BME280;57054;51.978;4.498;2023-04-08T09:22:54;102634.06;;;8.14;100.00
69784;BME280;57054;51.978;4.498;2023-04-08T09:25:26;102633.22;;;8.15;100.00
69784;BME280;57054;51.978;4.498;2023-04-08T09:27:52;102630.63;;;8.17;100.00
69784;BME280;57054;51.978;4.498;2023-04-08T09:30:19;102639.28;;;8.20;100.00
69784;BME280;57054;51.978;4.498;2023-04-08T09:35:14;102630.56;;;8.27;100.00
69784;BME280;57054;51.978;4.498;2023-04-08T09:37:41;102637.53;;;8.30;100.00
69784;BME280;57054;51.978;4.498;2023-04-08T09:40:14;102635.78;;;8.32;100.00
69784;BME280;57054;51.978;4.498;2023-04-08T09:42:44;102636.66;;;8.34;100.00
69784;BME280;57054;51.978;4.498;2023-04-08T09:45:10;102634.03;;;8.34;100.00
69784;BME280;57054;51.978;4.498;2023-04-08T09:50:39;102633.16;;;8.41;100.00
69784;BME280;57054;51.978;4.498;2023-04-08T09:53:13;102632.28;;;8.44;100.00
69784;BME280;57054;51.978;4.498;2023-04-08T09:55:42;102634.91;;;8.49;100.00
69784;BME280;57054;51.978;4.498;2023-04-08T09:58:14;102635.75;;;8.55;100.00
69784;BME280;57054;51.978;4.498;2023-04-08T10:00:46;102646.16;;;8.60;100.00
69784;BME280;57054;51.978;4.498;2023-04-08T10:05:50;102647.88;;;8.69;100.00
69784;BME280;57054;51.978;4.498;2023-04-08T10:08:17;102643.53;;;8.69;100.00
69784;BME280;57054;51.978;4.498;2023-04-08T10:10:43;102638.28;;;8.72;100.00
69784;BME280;57054;51.978;4.498;2023-04-08T10:13:08;102640.00;;;8.75;100.00
69784;BME280;57054;51.978;4.498;2023-04-08T10:15:34;102632.16;;;8.78;99.43
69784;BME280;57054;51.978;4.498;2023-04-08T10:22:59;102633.84;;;8.91;97.32
69784;BME280;57054;51.978;4.498;2023-04-08T10:27:50;102641.66;;;8.94;96.13
69784;BME280;57054;51.978;4.498;2023-04-08T10:32:50;102625.09;;;9.03;97.29
69784;BME280;57054;51.978;4.498;2023-04-08T10:35:15;102634.63;;;9.10;98.44
69784;BME280;57054;51.978;4.498;2023-04-08T10:37:41;102631.13;;;9.13;95.49
69784;BME280;57054;51.978;4.498;2023-04-08T10:40:18;102623.25;;;9.16;93.32
69784;BME280;57054;51.978;4.498;2023-04-08T10:42:43;102624.97;;;9.20;91.65
69784;BME280;57054;51.978;4.498;2023-04-08T10:45:09;102624.94;;;9.26;92.27
69784;BME280;57054;51.978;4.498;2023-04-08T10:47:34;102626.66;;;9.32;91.55
69784;BME280;57054;51.978;4.498;2023-04-08T10:50:11;102619.66;;;9.35;92.11
69784;BME280;57054;51.978;4.498;2023-04-08T10:52:48;102627.44;;;9.40;93.43
69784;BME280;57054;51.978;4.498;2023-04-08T10:55:14;102624.81;;;9.43;93.06
69784;BME280;57054;51.978;4.498;2023-04-08T10:57:40;102623.06;;;9.47;92.21
69784;BME280;57054;51.978;4.498;2023-04-08T11:00:10;102623.03;;;9.50;92.02
69784;BME280;57054;51.978;4.498;2023-04-08T11:02:39;102624.72;;;9.55;92.32
69784;BME280;57054;51.978;4.498;2023-04-08T11:05:04;102632.53;;;9.60;91.42
69784;BME280;57054;51.978;4.498;2023-04-08T11:07:30;102632.50;;;9.63;90.50
69784;BME280;57054;51.978;4.498;2023-04-08T11:09:55;102634.25;;;9.64;89.83
69784;BME280;57054;51.978;4.498;2023-04-08T11:12:21;102631.66;;;9.64;88.52
69784;BME280;57054;51.978;4.498;2023-04-08T11:14:47;102631.59;;;9.70;91.01
69784;BME280;57054;51.978;4.498;2023-04-08T11:17:17;102640.28;;;9.75;90.24
69784;BME280;57054;51.978;4.498;2023-04-08T11:19:43;102628.88;;;9.81;88.81
69784;BME280;57054;51.978;4.498;2023-04-08T11:22:08;102627.94;;;9.90;90.77
69784;BME280;57054;51.978;4.498;2023-04-08T11:24:36;102623.47;;;9.99;91.53
69784;BME280;57054;51.978;4.498;2023-04-08T11:27:05;102618.16;;;10.07;88.73
69784;BME280;57054;51.978;4.498;2023-04-08T11:29:31;102625.06;;;10.14;85.98
69784;BME280;57054;51.978;4.498;2023-04-08T11:31:57;102625.84;;;10.23;84.74
69784;BME280;57054;51.978;4.498;2023-04-08T11:34:23;102617.06;;;10.30;83.13
69784;BME280;57054;51.978;4.498;2023-04-08T11:36:52;102617.88;;;10.35;81.62
69784;BME280;57054;51.978;4.498;2023-04-08T11:39:21;102614.38;;;10.39;80.91
69784;BME280;57054;51.978;4.498;2023-04-08T11:41:47;102613.44;;;10.43;80.68
69784;BME280;57054;51.978;4.498;2023-04-08T11:44:12;102616.06;;;10.43;79.05
69784;BME280;57054;51.978;4.498;2023-04-08T11:46:37;102622.16;;;10.42;76.11
69784;BME280;57054;51.978;4.498;2023-04-08T11:49:06;102615.19;;;10.44;77.56
69784;BME280;57054;51.978;4.498;2023-04-08T11:52:01;102616.88;;;10.47;78.31
69784;BME280;57054;51.978;4.498;2023-04-08T11:54:31;102618.53;;;10.54;79.69
69784;BME280;57054;51.978;4.498;2023-04-08T11:56:57;102628.09;;;10.58;79.09
69784;BME280;57054;51.978;4.498;2023-04-08T11:59:24;102620.22;;;10.60;79.18
69784;BME280;57054;51.978;4.498;2023-04-08T12:01:50;102620.22;;;10.61;77.54
69784;BME280;57054;51.978;4.498;2023-04-08T12:04:16;102624.53;;;10.62;78.98
69784;BME280;57054;51.978;4.498;2023-04-08T12:06:41;102627.13;;;10.65;78.81
69784;BME280;57054;51.978;4.498;2023-04-08T12:09:10;102616.63;;;10.68;77.71
69784;BME280;57054;51.978;4.498;2023-04-08T12:11:36;102623.56;;;10.71;77.20
69784;BME280;57054;51.978;4.498;2023-04-08T12:14:02;102618.31;;;10.71;75.62
69784;BME280;57054;51.978;4.498;2023-04-08T12:16:27;102620.91;;;10.75;75.39
69784;BME280;57054;51.978;4.498;2023-04-08T12:18:53;102613.91;;;10.76;73.54
69784;BME280;57054;51.978;4.498;2023-04-08T12:21:18;102609.50;;;10.78;73.33
69784;BME280;57054;51.978;4.498;2023-04-08T12:23:44;102608.59;;;10.81;74.13
69784;BME280;57054;51.978;4.498;2023-04-08T12:26:09;102611.16;;;10.84;75.46
69784;BME280;57054;51.978;4.498;2023-04-08T12:28:36;102605.06;;;10.85;74.77
69784;BME280;57054;51.978;4.498;2023-04-08T12:31:01;102601.53;;;10.86;73.59
69784;BME280;57054;51.978;4.498;2023-04-08T12:33:27;102605.03;;;10.88;73.24
69784;BME280;57054;51.978;4.498;2023-04-08T12:35:52;102614.59;;;10.90;71.55
69784;BME280;57054;51.978;4.498;2023-04-08T12:38:18;102612.81;;;10.92;68.88
69784;BME280;57054;51.978;4.498;2023-04-08T12:40:43;102617.13;;;10.95;68.49
69784;BME280;57054;51.978;4.498;2023-04-08T12:43:09;102604.84;;;10.99;69.63
69784;BME280;57054;51.978;4.498;2023-04-08T12:45:34;102603.97;;;11.00;69.39
69784;BME280;57054;51.978;4.498;2023-04-08T12:48:00;102605.66;;;11.04;68.31
69784;BME280;57054;51.978;4.498;2023-04-08T12:50:26;102602.06;;;11.09;69.23
69784;BME280;57054;51.978;4.498;2023-04-08T12:52:51;102601.16;;;11.12;66.97
69784;BME280;57054;51.978;4.498;2023-04-08T12:55:17;102595.91;;;11.13;64.84
69784;BME280;57054;51.978;4.498;2023-04-08T12:57:43;102607.25;;;11.14;63.50
69784;BME280;57054;51.978;4.498;2023-04-08T13:00:09;102596.75;;;11.16;65.13
69784;BME280;57054;51.978;4.498;2023-04-08T13:02:35;102602.84;;;11.16;66.19
69784;BME280;57054;51.978;4.498;2023-04-08T13:05:00;102608.09;;;11.16;66.32